createdAt,value
2024-05-09T00:00:39.587Z,101305.22
2024-05-09T00:05:38.735Z,101358.88
2024-05-09T00:10:37.530Z,101325.28
2024-05-09T00:15:34.698Z,101358.13
2024-05-09T00:20:37.557Z,101334.09
2024-05-09T00:25:38.264Z,101326.13
2024-05-09T00:30:36.096Z,101352.72
2024-05-09T00:35:32.570Z,101345.78
2024-05-09T00:40:35.748Z,101315.78
2024-05-09T00:45:37.792Z,101240.31
2024-05-09T00:50:36.524Z,101344.53
2024-05-09T00:55:33.040Z,101310.78
2024-05-09T01:00:35.976Z,101303.22
2024-05-09T01:05:37.379Z,101305.84
2024-05-09T01:10:35.045Z,101325.88
2024-05-09T01:15:31.280Z,101334.38
2024-05-09T01:20:36.973Z,101341.38
2024-05-09T01:25:39.689Z,101338.75
2024-05-09T01:30:37.104Z,101338.50
2024-05-09T01:35:36.021Z,101321.75
2024-05-09T01:40:38.330Z,101357.22
2024-05-09T01:45:40.911Z,101292.72
2024-05-09T01:50:40.958Z,101328.47
2024-05-09T01:55:37.901Z,101363.91
2024-05-09T02:00:39.345Z,101366.66
2024-05-09T02:05:40.378Z,101318.50
2024-05-09T02:10:35.466Z,101306.19
2024-05-09T02:15:30.548Z,101345.34
2024-05-09T02:20:33.146Z,101266.03
2024-05-09T02:25:33.957Z,101351.16
2024-05-09T02:30:39.423Z,101370.59
2024-05-09T02:35:36.668Z,101330.47
2024-05-09T02:40:38.561Z,101364.16
2024-05-09T02:45:34.832Z,101366.59
2024-05-09T02:50:37.017Z,101380.53
2024-05-09T02:55:38.903Z,101386.50
2024-05-09T03:00:39.049Z,101320.06
2024-05-09T03:05:39.063Z,101405.81
2024-05-09T03:10:38.655Z,101387.38
2024-05-09T03:15:34.222Z,101409.25
2024-05-09T03:20:34.197Z,101406.00
2024-05-09T03:25:30.865Z,101398.38
2024-05-09T03:30:39.772Z,101375.28
2024-05-09T03:35:37.751Z,101393.59
2024-05-09T03:40:34.762Z,101432.19
2024-05-09T03:45:32.499Z,101407.19
2024-05-09T03:50:33.822Z,101440.06
2024-05-09T03:55:31.443Z,101440.72
2024-05-09T04:00:35.068Z,101467.09
2024-05-09T04:05:36.944Z,101445.03
2024-05-09T04:10:34.706Z,101471.63
2024-05-09T04:15:30.603Z,101482.94
2024-05-09T04:20:36.608Z,101480.31
2024-05-09T04:25:38.010Z,101485.88
2024-05-09T04:30:38.556Z,101456.16
2024-05-09T04:35:36.240Z,101498.56
2024-05-09T04:40:35.484Z,101475.41
2024-05-09T04:45:35.061Z,101459.59
2024-05-09T04:50:36.736Z,101479.50
2024-05-09T04:55:34.333Z,101307.50
2024-05-09T05:00:36.607Z,101436.00
2024-05-09T05:05:36.857Z,101480.19
2024-05-09T05:10:36.504Z,101449.44
2024-05-09T05:15:32.441Z,101507.19
2024-05-09T05:20:33.226Z,101475.63
2024-05-09T05:25:32.201Z,101514.91
2024-05-09T05:30:32.564Z,101501.94
2024-05-09T05:35:29.758Z,101466.06
2024-05-09T05:40:32.962Z,101504.56
2024-05-09T05:45:34.409Z,101433.72
2024-05-09T05:50:35.697Z,101459.47
2024-05-09T05:55:32.846Z,101511.94
2024-05-09T06:00:34.776Z,101498.94
2024-05-09T06:05:36.269Z,101528.75
2024-05-09T06:10:38.045Z,101514.09
2024-05-09T06:15:36.798Z,101464.09
2024-05-09T06:20:36.412Z,101482.22
2024-05-09T06:25:36.272Z,101363.81
2024-05-09T06:30:38.756Z,101510.78
2024-05-09T06:35:36.672Z,101519.47
2024-05-09T06:40:38.026Z,101554.69
2024-05-09T06:45:40.854Z,101391.91
2024-05-09T06:50:43.646Z,101472.88
2024-05-09T06:55:41.145Z,101534.06
2024-05-09T07:00:41.131Z,101512.41
2024-05-09T07:05:40.026Z,101497.53
2024-05-09T07:10:36.645Z,101528.94
2024-05-09T07:15:32.403Z,101522.31
2024-05-09T07:20:35.308Z,101535.19
2024-05-09T07:25:30.684Z,101476.41
2024-05-09T07:30:32.899Z,101450.88
2024-05-09T07:35:32.583Z,101473.59
2024-05-09T07:40:34.601Z,101500.44
2024-05-09T07:45:48.158Z,101557.47
2024-05-09T07:55:47.770Z,101565.19
2024-05-09T08:00:43.142Z,101565.53
2024-05-09T08:05:38.414Z,101572.75
2024-05-09T08:10:36.399Z,101580.41
2024-05-09T08:15:31.777Z,101572.09
2024-05-09T08:20:33.512Z,101567.69
2024-05-09T08:25:30.574Z,101556.25
2024-05-09T08:30:33.838Z,101572.19
2024-05-09T08:35:32.456Z,101596.41
2024-05-09T08:40:34.099Z,101570.94
2024-05-09T08:45:39.167Z,101546.88
2024-05-09T08:50:39.514Z,101535.88
2024-05-09T08:55:41.847Z,101500.38
2024-05-09T09:00:43.630Z,101565.72
2024-05-09T09:05:45.164Z,101557.84
2024-05-09T09:10:42.567Z,101529.88
2024-05-09T09:15:49.997Z,101563.88
2024-05-09T09:20:45.775Z,101509.00
2024-05-09T09:25:44.971Z,101580.72
2024-05-09T09:30:45.079Z,101524.81
2024-05-09T09:35:43.645Z,101560.47
2024-05-09T09:40:44.922Z,101495.56
2024-05-09T09:45:52.447Z,101512.59
2024-05-09T09:50:48.822Z,101537.28
2024-05-09T09:55:45.100Z,101541.13
2024-05-09T10:00:40.571Z,101537.59
2024-05-09T10:05:45.336Z,101560.25
2024-05-09T10:10:48.960Z,101546.59
2024-05-09T10:15:48.423Z,101563.88
2024-05-09T10:20:49.475Z,101492.66
2024-05-09T10:25:44.674Z,101558.19
2024-05-09T10:30:42.758Z,101559.66
2024-05-09T10:35:38.544Z,101554.06
2024-05-09T10:40:38.412Z,101476.66
2024-05-09T10:45:34.840Z,101515.16
2024-05-09T10:50:34.092Z,101434.44
2024-05-09T10:55:29.884Z,101422.44
2024-05-09T11:00:36.218Z,101473.41
2024-05-09T11:05:36.488Z,101552.94
2024-05-09T11:10:34.954Z,101572.84
2024-05-09T11:15:41.284Z,101546.91
2024-05-09T11:20:40.460Z,101550.63
2024-05-09T11:25:48.511Z,101571.94
2024-05-09T11:30:46.988Z,101565.09
2024-05-09T11:35:46.409Z,101564.56
2024-05-09T11:40:45.505Z,101487.16
2024-05-09T11:45:47.228Z,101515.53
2024-05-09T11:50:42.685Z,101532.66
2024-05-09T11:55:39.359Z,101561.03
2024-05-09T12:00:39.640Z,101555.16
2024-05-09T12:05:41.073Z,101366.50
2024-05-09T12:10:39.877Z,101487.00
2024-05-09T12:15:37.442Z,101558.28
2024-05-09T12:20:37.839Z,101552.06
2024-05-09T12:25:39.682Z,101536.06
2024-05-09T12:30:39.785Z,101550.34
2024-05-09T12:35:36.148Z,101539.59
2024-05-09T12:40:36.347Z,101407.28
2024-05-09T12:45:36.403Z,101508.28
2024-05-09T12:50:33.758Z,101417.13
2024-05-09T12:55:34.202Z,101522.84
2024-05-09T13:00:39.621Z,101512.44
2024-05-09T13:05:34.969Z,101450.03
2024-05-09T13:10:32.778Z,101503.88
2024-05-09T13:15:31.614Z,101500.19
2024-05-09T13:20:33.235Z,101470.47
2024-05-09T13:25:34.581Z,101511.06
2024-05-09T13:30:38.540Z,101513.44
2024-05-09T13:35:53.329Z,101354.81
2024-05-09T13:40:49.822Z,101425.09
2024-05-09T13:45:45.709Z,101434.25
2024-05-09T13:50:41.934Z,101472.22
2024-05-09T13:55:41.163Z,101450.81
2024-05-09T14:00:44.655Z,101445.81
2024-05-09T14:05:43.894Z,101458.84
2024-05-09T14:10:44.432Z,101437.69
2024-05-09T14:15:40.497Z,101489.56
2024-05-09T14:20:35.825Z,101487.91
2024-05-09T14:25:35.739Z,101496.38
2024-05-09T14:30:51.358Z,101505.81
2024-05-09T14:35:46.634Z,101428.41
2024-05-09T14:40:43.926Z,101436.75
2024-05-09T14:45:42.237Z,101475.13
2024-05-09T14:50:40.078Z,101455.88
2024-05-09T14:55:37.623Z,101481.34
2024-05-09T15:00:36.163Z,101501.91
2024-05-09T15:05:35.435Z,101466.44
2024-05-09T15:10:34.866Z,101479.81
2024-05-09T15:15:34.338Z,101457.34
2024-05-09T15:20:34.755Z,101476.69
2024-05-09T15:25:36.621Z,101478.75
2024-05-09T15:30:33.955Z,101405.97
2024-05-09T15:35:30.101Z,101493.69
2024-05-09T15:40:35.135Z,101488.66
2024-05-09T15:45:37.464Z,101469.75
2024-05-09T15:50:38.607Z,101452.94
2024-05-09T15:55:36.521Z,101474.53
2024-05-09T16:00:38.662Z,101443.00
2024-05-09T16:05:50.204Z,101461.53
2024-05-09T16:10:49.909Z,101388.97
2024-05-09T16:15:51.874Z,101490.56
2024-05-09T16:20:50.571Z,101436.53
2024-05-09T16:25:48.475Z,101321.81
2024-05-09T16:30:44.033Z,101454.09
2024-05-09T16:35:39.738Z,101485.63
2024-05-09T16:40:41.125Z,101488.50
2024-05-09T16:45:47.767Z,101427.22
2024-05-09T16:50:44.298Z,101479.66
2024-05-09T16:55:42.315Z,101496.66
2024-05-09T17:00:42.120Z,101490.25
2024-05-09T17:05:51.062Z,101505.91
2024-05-09T17:10:53.140Z,101449.59
2024-05-09T17:15:48.906Z,101469.19
2024-05-09T17:20:45.557Z,101522.25
2024-05-09T17:25:43.439Z,101392.41
2024-05-09T17:30:44.448Z,101386.25
2024-05-09T17:35:40.791Z,101481.78
2024-05-09T17:40:37.938Z,101527.13
2024-05-09T17:45:34.522Z,101531.81
2024-05-09T17:50:37.342Z,101544.78
2024-05-09T18:01:26.252Z,101537.69
2024-05-09T18:06:24.645Z,101554.78
2024-05-09T18:11:22.540Z,101416.84
2024-05-09T18:16:18.890Z,101492.63
2024-05-09T18:21:14.308Z,101466.50
2024-05-09T18:26:12.741Z,101517.16
2024-05-09T18:31:10.554Z,101582.31
2024-05-09T18:36:05.887Z,101566.19
2024-05-09T18:41:01.218Z,101491.00
2024-05-09T18:45:59.623Z,101585.19
2024-05-09T18:50:56.947Z,101609.91
2024-05-09T18:55:54.717Z,101518.38
2024-05-09T19:00:54.988Z,101555.53
2024-05-09T19:05:54.164Z,101586.56
2024-05-09T19:10:52.790Z,101513.03
2024-05-09T19:15:48.308Z,101577.25
2024-05-09T19:20:43.960Z,101625.56
2024-05-09T19:25:43.738Z,101652.00
2024-05-09T19:30:41.912Z,101617.41
2024-05-09T19:35:38.212Z,101649.91
2024-05-09T19:40:38.175Z,101576.41
2024-05-09T19:45:36.733Z,101652.00
2024-05-09T19:50:40.969Z,101613.72
2024-05-09T19:55:39.297Z,101524.28
2024-05-09T20:00:40.768Z,101545.66
2024-05-09T20:05:40.679Z,101667.72
2024-05-09T20:10:40.366Z,101686.72
2024-05-09T20:15:40.199Z,101663.50
2024-05-09T20:20:39.734Z,101507.09
2024-05-09T20:25:37.862Z,101506.16
2024-05-09T20:30:34.228Z,101619.31
2024-05-09T20:35:33.569Z,101630.94
2024-05-09T20:40:33.209Z,101652.88
2024-05-09T20:45:32.100Z,101696.59
2024-05-09T20:50:36.411Z,101688.97
2024-05-09T20:55:37.931Z,101632.47
2024-05-09T21:00:39.604Z,101646.94
2024-05-09T21:05:38.397Z,101691.19
2024-05-09T21:10:34.676Z,101685.09
2024-05-09T21:15:32.934Z,101612.91
2024-05-09T21:20:31.773Z,101568.03
2024-05-09T21:25:31.216Z,101657.84
2024-05-09T21:30:37.386Z,101602.63
2024-05-09T21:35:39.296Z,101558.16
2024-05-09T21:40:36.155Z,101672.53
2024-05-09T21:45:32.478Z,101668.53
2024-05-09T21:50:35.433Z,101663.66
2024-05-09T21:55:37.284Z,101649.41
2024-05-09T22:00:36.918Z,101663.59
2024-05-09T22:05:34.050Z,101615.50
2024-05-09T22:10:33.976Z,101650.69
2024-05-09T22:15:36.848Z,101663.47
2024-05-09T22:20:37.768Z,101634.81
2024-05-09T22:25:34.817Z,101660.13
2024-05-09T22:30:35.999Z,101621.16
2024-05-09T22:35:40.764Z,101659.78
2024-05-09T22:40:45.739Z,101629.25
2024-05-09T22:45:44.233Z,101583.66
2024-05-09T22:50:43.247Z,101617.84
2024-05-09T22:55:38.383Z,101592.03
2024-05-09T23:00:35.809Z,101640.88
2024-05-09T23:05:32.233Z,101592.56
2024-05-09T23:10:36.227Z,101582.81
2024-05-09T23:15:33.033Z,101632.88
2024-05-09T23:20:36.252Z,101592.59
2024-05-09T23:25:37.047Z,101607.78
2024-05-09T23:30:37.940Z,101597.06
2024-05-09T23:35:37.171Z,101612.28
2024-05-09T23:40:38.659Z,101641.44
2024-05-09T23:45:38.951Z,101533.94
2024-05-09T23:50:37.501Z,101587.41
2024-05-09T23:55:34.529Z,101599.41
